Time;durP1;ratioP1;P1;durP2;ratioP2;P2;SDS_P1;SDS_P2;PMS_P1;PMS_P2;Temp;Humidity;BMP_temperature;BMP_pressure;BME280_temperature;BME280_humidity;BME280_pressure;Samples;Min_cycle;Max_cycle;Signal;HPM_P1;HPM_P2
2021/01/17 00:00:32;;;;;;;35.38;18.30;;;;;;;-3.37;71.03;96716.16;6247330;23;20024;-80
2021/01/17 00:03:00;;;;;;;38.67;20.25;;;;;;;-3.37;71.26;96717.88;6248305;23;20338;-80
2021/01/17 00:05:29;;;;;;;40.13;21.13;;;;;;;-3.37;71.31;96708.50;6250071;23;20102;-80
2021/01/17 00:07:57;;;;;;;41.97;20.23;;;;;;;-3.36;71.02;96705.03;6250162;23;20016;-80
2021/01/17 00:10:25;;;;;;;38.03;19.98;;;;;;;-3.36;71.32;96697.38;6250021;23;20553;-80
2021/01/17 00:12:53;;;;;;;39.38;20.13;;;;;;;-3.35;71.10;96695.63;6249942;23;20023;-80
2021/01/17 00:15:21;;;;;;;38.78;19.88;;;;;;;-3.34;71.47;96704.94;6249700;23;20038;-79
2021/01/17 00:17:48;;;;;;;38.45;19.17;;;;;;;-3.32;71.06;96698.03;6250279;23;20099;-80
2021/01/17 00:20:16;;;;;;;38.97;20.38;;;;;;;-3.33;71.23;96702.28;6249739;23;20479;-80
2021/01/17 00:22:43;;;;;;;38.00;19.65;;;;;;;-3.34;71.23;96703.22;6250503;23;20027;-80
2021/01/17 00:25:12;;;;;;;37.40;20.05;;;;;;;-3.29;71.49;96697.81;6250592;23;20568;-80
2021/01/17 00:27:39;;;;;;;42.38;20.45;;;;;;;-3.23;71.72;96702.56;6250511;23;20038;-80
2021/01/17 00:30:07;;;;;;;37.08;19.65;;;;;;;-3.17;71.52;96696.25;6249957;23;20024;-80
2021/01/17 00:32:35;;;;;;;34.08;17.95;;;;;;;-3.19;71.00;96692.97;6249928;23;20047;-80
2021/01/17 00:35:02;;;;;;;37.03;20.95;;;;;;;-3.16;71.28;96688.50;6250113;23;20020;-80
2021/01/17 00:37:28;;;;;;;32.40;18.60;;;;;;;-3.10;71.20;96687.31;6251225;23;20027;-79
2021/01/17 00:39:55;;;;;;;32.72;17.92;;;;;;;-3.07;71.23;96682.00;6253178;23;20441;-80
2021/01/17 00:42:21;;;;;;;38.65;21.55;;;;;;;-3.06;70.95;96677.72;6251464;23;20020;-80
2021/01/17 00:44:50;;;;;;;38.15;19.88;;;;;;;-3.04;71.08;96675.88;6251195;23;20020;-80
2021/01/17 00:47:17;;;;;;;41.30;20.95;;;;;;;-3.02;71.46;96674.06;6247350;23;20012;-79
2021/01/17 00:49:45;;;;;;;41.00;20.27;;;;;;;-2.96;71.43;96666.84;6246448;23;20091;-80
2021/01/17 00:52:17;;;;;;;39.92;20.48;;;;;;;-2.95;71.61;96660.03;6247597;23;20024;-80
2021/01/17 00:54:43;;;;;;;37.58;20.02;;;;;;;-2.93;71.61;96655.63;6247529;23;20016;-80
2021/01/17 00:57:10;;;;;;;40.00;20.13;;;;;;;-2.95;71.34;96647.25;6247404;23;20020;-80
2021/01/17 00:59:36;;;;;;;41.00;20.75;;;;;;;-2.99;71.80;96648.38;6247165;23;20334;-80
2021/01/17 01:02:03;;;;;;;38.05;20.10;;;;;;;-2.99;71.90;96646.63;6238468;22;20021;-80
2021/01/17 01:04:30;;;;;;;36.65;19.65;;;;;;;-2.98;72.11;96640.59;6217192;23;20028;-80
2021/01/17 01:06:58;;;;;;;38.53;20.92;;;;;;;-2.99;72.31;96636.41;6216535;23;20017;-79
2021/01/17 01:09:25;;;;;;;35.33;19.08;;;;;;;-2.97;72.17;96629.47;6216518;23;20035;-79
2021/01/17 01:11:51;;;;;;;42.10;20.95;;;;;;;-2.98;72.02;96614.25;6216443;23;20020;-80
2021/01/17 01:14:18;;;;;;;38.55;20.83;;;;;;;-3.01;72.30;96611.91;6217339;23;20025;-80
2021/01/17 01:16:48;;;;;;;38.75;18.50;;;;;;;-3.03;72.48;96616.28;6217376;23;20356;-80
2021/01/17 01:19:16;;;;;;;38.00;19.40;;;;;;;-3.01;72.42;96611.91;6217024;23;20020;-80
2021/01/17 01:21:42;;;;;;;37.47;20.30;;;;;;;-3.00;72.20;96611.78;6216878;23;20035;-80
2021/01/17 01:24:11;;;;;;;38.03;21.25;;;;;;;-2.97;72.48;96603.97;6216790;23;20020;-80
2021/01/17 01:26:39;;;;;;;35.10;17.55;;;;;;;-2.95;72.17;96604.69;6217078;23;20023;-79
2021/01/17 01:29:05;;;;;;;43.17;21.73;;;;;;;-2.95;72.04;96599.59;6218149;23;20027;-79
2021/01/17 01:31:33;;;;;;;38.90;18.42;;;;;;;-2.97;72.26;96596.31;6218823;23;20019;-79
2021/01/17 01:34:00;;;;;;;34.30;18.02;;;;;;;-2.99;72.53;96593.03;6238809;23;20028;-80
2021/01/17 01:36:27;;;;;;;36.47;19.20;;;;;;;-3.00;72.81;96593.94;6239674;23;20072;-79
2021/01/17 01:38:55;;;;;;;40.13;19.30;;;;;;;-3.00;72.77;96591.38;6241012;23;20047;-79
2021/01/17 01:41:27;;;;;;;37.97;19.02;;;;;;;-3.00;72.95;96586.28;6235826;23;20024;-80
2021/01/17 01:43:54;;;;;;;37.20;19.65;;;;;;;-2.98;72.77;96587.00;6222541;23;20044;-80
2021/01/17 01:46:21;;;;;;;38.30;18.40;;;;;;;-2.96;72.58;96587.72;6218814;23;20030;-80
2021/01/17 01:48:49;;;;;;;38.88;18.92;;;;;;;-2.96;72.81;96582.63;6218414;23;20016;-80
2021/01/17 01:51:17;;;;;;;37.72;18.30;;;;;;;-2.92;72.79;96578.13;6218577;23;20419;-80
2021/01/17 01:53:44;;;;;;;37.53;19.25;;;;;;;-2.89;73.02;96572.81;6217891;23;20465;-80
2021/01/17 01:56:14;;;;;;;45.00;20.08;;;;;;;-2.90;72.62;96577.13;6218143;23;20412;-80
2021/01/17 01:58:42;;;;;;;36.70;18.08;;;;;;;-2.90;73.14;96566.91;6228451;23;20020;-79
2021/01/17 02:01:09;;;;;;;34.85;18.55;;;;;;;-2.90;72.83;96573.75;6217556;23;20048;-79
2021/01/17 02:03:36;;;;;;;36.80;19.27;;;;;;;-2.90;73.25;96564.34;6243357;23;20091;-80
2021/01/17 02:06:10;;;;;;;36.70;18.38;;;;;;;-2.87;73.05;96565.88;6247234;23;20476;-79
2021/01/17 02:09:05;;;;;;;32.15;17.95;;;;;;;-2.84;73.23;96567.41;6247762;23;20023;-80
2021/01/17 02:11:44;;;;;;;31.90;17.00;;;;;;;-2.81;73.41;96565.50;6243710;23;20459;-79
2021/01/17 02:14:23;;;;;;;36.33;17.40;;;;;;;-2.77;73.00;96563.56;6247500;23;20063;-80
2021/01/17 02:16:53;;;;;;;35.05;19.60;;;;;;;-2.76;72.93;96554.97;6247422;23;20056;-80
2021/01/17 02:19:24;;;;;;;32.85;17.48;;;;;;;-2.73;73.06;96557.34;6247386;23;20024;-80
2021/01/17 02:21:56;;;;;;;39.92;19.08;;;;;;;-2.72;72.95;96548.75;6246569;23;20039;-80
2021/01/17 02:24:29;;;;;;;37.20;18.93;;;;;;;-2.71;72.76;96550.41;6246736;23;20095;-79
2021/01/17 02:26:57;;;;;;;45.50;20.42;;;;;;;-2.73;72.90;96540.28;6246099;23;20441;-80
2021/01/17 02:29:25;;;;;;;39.05;18.95;;;;;;;-2.73;72.20;96536.94;6246838;23;20329;-80
2021/01/17 02:31:56;;;;;;;36.63;17.70;;;;;;;-2.75;72.48;96536.22;6247168;23;20012;-79
2021/01/17 02:34:24;;;;;;;35.47;18.75;;;;;;;-2.75;72.65;96534.47;6248276;23;20020;-80
2021/01/17 02:36:59;;;;;;;34.08;16.50;;;;;;;-2.74;72.60;96525.06;6251913;23;20116;-79
2021/01/17 02:39:32;;;;;;;35.85;18.27;;;;;;;-2.71;72.86;96528.25;6271796;23;20023;-80
2021/01/17 02:42:01;;;;;;;37.20;19.15;;;;;;;-2.70;72.77;96516.28;6272359;22;20035;-80
2021/01/17 02:44:29;;;;;;;35.13;17.85;;;;;;;-2.72;72.62;96518.94;6257122;23;20042;-80
2021/01/17 02:46:56;;;;;;;36.30;19.67;;;;;;;-2.72;72.73;96513.81;6252266;23;20013;-79
2021/01/17 02:49:24;;;;;;;32.88;17.42;;;;;;;-2.71;72.33;96512.13;6249473;23;20016;-80
2021/01/17 02:51:51;;;;;;;31.70;17.30;;;;;;;-2.70;72.58;96506.06;6248829;23;20095;-80
2021/01/17 02:54:23;;;;;;;37.15;19.80;;;;;;;-2.72;72.40;96503.59;6249463;23;20289;-80
2021/01/17 02:56:57;;;;;;;33.15;17.85;;;;;;;-2.73;72.63;96506.28;6249320;23;20063;-80
2021/01/17 02:59:31;;;;;;;36.40;19.63;;;;;;;-2.74;72.82;96504.63;6250219;23;20020;-80
2021/01/17 03:02:02;;;;;;;39.75;19.45;;;;;;;-2.73;73.02;96503.72;6248889;23;20031;-80
2021/01/17 03:04:34;;;;;;;32.85;18.20;;;;;;;-2.71;73.13;96501.91;6247784;23;20108;-80
2021/01/17 03:07:05;;;;;;;34.30;17.90;;;;;;;-2.70;73.18;96501.78;6246739;23;20035;-79
2021/01/17 03:09:34;;;;;;;35.78;16.98;;;;;;;-2.68;73.27;96500.88;6246274;23;20017;-80
2021/01/17 03:12:03;;;;;;;35.58;18.42;;;;;;;-2.68;73.44;96499.13;6246301;23;20022;-80
2021/01/17 03:14:35;;;;;;;32.80;17.15;;;;;;;-2.69;73.23;96502.59;6247692;23;20020;-80
2021/01/17 03:17:08;;;;;;;33.78;16.80;;;;;;;-2.67;73.55;96495.63;6262134;22;20020;-81
2021/01/17 03:19:36;;;;;;;34.13;18.25;;;;;;;-2.63;73.43;96496.25;6252625;22;20012;-80
2021/01/17 03:22:05;;;;;;;30.95;17.42;;;;;;;-2.61;73.30;96499.53;6246479;23;20024;-80
2021/01/17 03:24:32;;;;;;;34.33;19.52;;;;;;;-2.58;73.62;96500.16;6246764;23;20016;-79
2021/01/17 03:27:00;;;;;;;31.17;17.10;;;;;;;-2.54;73.38;96501.56;6246355;23;20457;-80
2021/01/17 03:29:28;;;;;;;34.53;17.98;;;;;;;-2.53;73.28;96492.19;6245467;23;20020;-80
2021/01/17 03:32:04;;;;;;;30.98;17.23;;;;;;;-2.54;73.26;96496.44;6249146;23;20020;-80
2021/01/17 03:34:32;;;;;;;31.10;17.25;;;;;;;-2.54;73.24;96501.56;6247092;23;20020;-79
2021/01/17 03:37:08;;;;;;;31.73;18.38;;;;;;;-2.55;73.20;96494.81;6255735;23;20016;-79
2021/01/17 03:39:38;;;;;;;33.05;18.00;;;;;;;-2.53;73.08;96498.09;6247458;23;20016;-79
2021/01/17 03:42:12;;;;;;;35.00;19.52;;;;;;;-2.53;73.23;96502.41;6259454;22;20012;-79
2021/01/17 03:44:41;;;;;;;34.63;17.23;;;;;;;-2.55;72.93;96494.03;6251713;22;20020;-80
2021/01/17 03:47:10;;;;;;;35.25;18.00;;;;;;;-2.56;73.29;96498.31;6270381;22;20039;-80
2021/01/17 03:49:38;;;;;;;33.83;17.95;;;;;;;-2.59;73.27;96493.41;6250813;23;20012;-80
2021/01/17 03:52:14;;;;;;;31.30;16.75;;;;;;;-2.58;73.51;96500.16;6266302;22;20011;-79
2021/01/17 03:54:49;;;;;;;30.67;17.13;;;;;;;-2.59;73.33;96497.69;6254148;22;20004;-80
2021/01/17 03:57:20;;;;;;;34.70;18.38;;;;;;;-2.57;73.74;96501.78;6264963;22;20016;-79
2021/01/17 03:59:47;;;;;;;35.40;18.40;;;;;;;-2.57;73.56;96494.13;6246877;23;20020;-80
2021/01/17 04:02:18;;;;;;;35.90;19.05;;;;;;;-2.55;73.58;96499.94;6246174;23;20024;-80
2021/01/17 04:04:46;;;;;;;30.83;17.35;;;;;;;-2.54;73.78;96499.00;6245424;23;20028;-80
2021/01/17 04:07:13;;;;;;;37.17;19.60;;;;;;;-2.54;73.67;96491.34;6245783;23;20024;-79
2021/01/17 04:09:42;;;;;;;35.53;19.23;;;;;;;-2.53;73.99;96498.09;6256887;22;20030;-81
2021/01/17 04:12:10;;;;;;;32.42;16.52;;;;;;;-2.52;73.70;96494.63;6245709;23;20035;-80
2021/01/17 04:14:37;;;;;;;30.73;17.33;;;;;;;-2.51;73.94;96490.34;6245514;23;20016;-80
2021/01/17 04:17:05;;;;;;;32.83;17.85;;;;;;;-2.51;74.08;96496.25;6245482;23;20039;-81
2021/01/17 04:19:37;;;;;;;31.75;17.10;;;;;;;-2.51;74.06;96496.25;6265793;22;20011;-80
2021/01/17 04:22:06;;;;;;;35.50;20.63;;;;;;;-2.50;74.40;96492.78;6256462;22;20023;-81
2021/01/17 04:24:33;;;;;;;30.00;15.60;;;;;;;-2.46;74.37;96487.47;6245008;23;20106;-79
2021/01/17 04:27:00;;;;;;;33.92;18.13;;;;;;;-2.48;74.11;96490.13;6245087;23;20012;-80
2021/01/17 04:29:26;;;;;;;33.90;18.50;;;;;;;-2.47;74.05;96483.28;6244792;23;20012;-79
2021/01/17 04:31:53;;;;;;;34.67;19.35;;;;;;;-2.50;74.58;96492.78;6244715;23;20471;-79
2021/01/17 04:34:22;;;;;;;33.88;18.40;;;;;;;-2.51;74.37;96486.03;6245388;23;20023;-80
2021/01/17 04:36:50;;;;;;;37.58;20.35;;;;;;;-2.50;74.34;96491.97;6245043;23;20043;-79
2021/01/17 04:39:17;;;;;;;33.50;17.20;;;;;;;-2.49;74.54;96491.06;6244867;23;20338;-79
2021/01/17 04:41:45;;;;;;;35.25;18.13;;;;;;;-2.46;74.38;96490.03;6245359;23;20012;-79
2021/01/17 04:44:18;;;;;;;30.30;16.77;;;;;;;-2.44;74.49;96495.84;6245927;23;20544;-80
2021/01/17 04:46:45;;;;;;;32.33;17.60;;;;;;;-2.42;74.67;96497.38;6245714;23;20144;-80
2021/01/17 04:49:16;;;;;;;33.97;17.75;;;;;;;-2.38;74.84;96506.47;6260348;22;20024;-80
2021/01/17 04:51:50;;;;;;;34.80;18.50;;;;;;;-2.32;75.26;96497.56;6273603;22;20000;-79
2021/01/17 04:54:17;;;;;;;35.38;19.23;;;;;;;-2.26;75.01;96504.81;6274746;23;20034;-79
2021/01/17 04:56:53;;;;;;;32.50;16.83;;;;;;;-2.23;74.69;96507.16;6271183;22;20020;-80
2021/01/17 04:59:26;;;;;;;33.63;18.00;;;;;;;-2.18;74.59;96514.53;6268110;22;20492;-80
2021/01/17 05:02:08;;;;;;;30.13;15.80;;;;;;;-2.16;74.49;96510.13;6252874;23;20352;-80
2021/01/17 05:05:08;;;;;;;32.63;17.83;;;;;;;-2.17;74.39;96508.47;6250305;23;20024;-80
2021/01/17 05:07:36;;;;;;;29.23;16.30;;;;;;;-2.18;73.88;96517.88;6249140;23;20012;-80
2021/01/17 05:10:07;;;;;;;32.88;16.88;;;;;;;-2.17;74.38;96518.69;6248020;23;20349;-80
2021/01/17 05:12:39;;;;;;;30.08;16.88;;;;;;;-2.14;74.40;96516.75;6247765;23;20479;-80
2021/01/17 05:15:07;;;;;;;29.60;16.75;;;;;;;-2.08;74.41;96518.91;6247163;23;20484;-80
2021/01/17 05:17:40;;;;;;;31.30;16.88;;;;;;;-2.06;74.19;96526.44;6247633;23;20024;-80
2021/01/17 05:20:09;;;;;;;31.00;16.33;;;;;;;-2.05;74.28;96522.16;6246809;23;20547;-80
2021/01/17 05:22:36;;;;;;;27.33;15.35;;;;;;;-2.04;74.16;96523.78;6247214;23;20058;-79
2021/01/17 05:25:06;;;;;;;31.00;17.00;;;;;;;-2.03;74.56;96521.13;6246596;23;20016;-79
2021/01/17 05:27:33;;;;;;;32.60;17.27;;;;;;;-1.98;74.32;96528.47;6247364;23;20072;-80
2021/01/17 05:30:01;;;;;;;29.80;16.35;;;;;;;-1.95;74.33;96533.38;6246325;23;20012;-80
2021/01/17 05:32:27;;;;;;;28.27;16.45;;;;;;;-1.95;74.14;96536.75;6246516;23;20364;-79
2021/01/17 05:34:55;;;;;;;33.28;18.02;;;;;;;-1.91;74.28;96534.78;6246240;23;20020;-80
2021/01/17 05:37:21;;;;;;;35.08;19.15;;;;;;;-1.90;74.07;96537.25;6246398;23;20425;-79
2021/01/17 05:39:58;;;;;;;32.80;17.55;;;;;;;-1.88;74.57;96544.78;6246501;23;20528;-79
2021/01/17 05:42:27;;;;;;;30.92;16.60;;;;;;;-1.88;74.39;96540.53;6246109;23;20468;-79
2021/01/17 05:44:56;;;;;;;31.70;16.48;;;;;;;-1.87;74.12;96541.34;6246214;23;20071;-79
2021/01/17 05:47:24;;;;;;;30.38;16.77;;;;;;;-1.88;74.21;96544.78;6246448;23;20474;-80
2021/01/17 05:49:51;;;;;;;29.15;16.58;;;;;;;-1.89;74.20;96543.19;6245867;23;20469;-79
2021/01/17 05:52:19;;;;;;;32.72;17.65;;;;;;;-1.89;73.94;96543.19;6246394;23;20410;-79
2021/01/17 05:54:48;;;;;;;29.90;17.67;;;;;;;-1.91;74.05;96545.03;6246238;23;20456;-80
2021/01/17 05:57:17;;;;;;;33.15;18.90;;;;;;;-1.93;73.88;96541.75;6246598;23;20022;-77
2021/01/17 05:59:45;;;;;;;33.55;19.30;;;;;;;-1.94;73.82;96552.91;6245520;23;20024;-80
2021/01/17 06:02:13;;;;;;;31.88;17.58;;;;;;;-1.96;73.93;96552.19;6246233;23;20261;-80
2021/01/17 06:04:41;;;;;;;34.05;19.48;;;;;;;-1.99;73.81;96549.84;6246457;23;20024;-79
2021/01/17 06:07:09;;;;;;;32.45;17.02;;;;;;;-2.01;74.18;96555.06;6246337;23;20024;-80
2021/01/17 06:09:38;;;;;;;33.20;18.05;;;;;;;-2.03;74.22;96546.69;6246473;23;20075;-79
2021/01/17 06:12:06;;;;;;;31.67;18.50;;;;;;;-2.04;74.04;96550.16;6246656;23;20099;-80
2021/01/17 06:14:33;;;;;;;33.85;18.40;;;;;;;-2.02;74.68;96548.31;6246655;23;20032;-80
2021/01/17 06:17:02;;;;;;;33.33;18.73;;;;;;;-1.96;75.10;96549.66;6246358;23;20020;-79
2021/01/17 06:19:34;;;;;;;35.47;18.20;;;;;;;-1.94;74.62;96551.16;6245761;23;20044;-79
2021/01/17 06:22:03;;;;;;;33.78;18.23;;;;;;;-1.95;74.67;96548.72;6246225;23;20099;-79
2021/01/17 06:24:38;;;;;;;33.92;18.00;;;;;;;-1.95;74.59;96553.81;6245881;23;20016;-80
2021/01/17 06:27:06;;;;;;;32.15;17.63;;;;;;;-1.94;74.49;96555.47;6246237;23;20449;-80
2021/01/17 06:29:38;;;;;;;30.02;17.40;;;;;;;-1.97;74.35;96546.28;6245520;23;20094;-80
2021/01/17 06:32:14;;;;;;;32.22;17.95;;;;;;;-1.98;74.29;96551.50;6245607;23;20016;-79
2021/01/17 06:34:43;;;;;;;31.52;16.38;;;;;;;-1.98;74.75;96549.75;6246019;23;20392;-79
2021/01/17 06:37:11;;;;;;;29.33;16.58;;;;;;;-1.96;75.00;96554.75;6246470;23;20099;-80
2021/01/17 06:39:42;;;;;;;30.33;15.52;;;;;;;-1.95;75.04;96553.81;6245575;23;20012;-79
2021/01/17 06:42:10;;;;;;;29.08;17.10;;;;;;;-1.91;75.15;96558.63;6245857;23;20099;-80
2021/01/17 06:44:37;;;;;;;28.27;15.65;;;;;;;-1.88;74.68;96560.13;6246186;23;20094;-79
2021/01/17 06:47:04;;;;;;;30.90;16.45;;;;;;;-1.92;74.49;96559.56;6259275;22;20018;-80
2021/01/17 06:49:36;;;;;;;32.00;16.98;;;;;;;-1.95;74.53;96561.50;6273930;22;20024;-79
2021/01/17 06:52:04;;;;;;;30.27;17.30;;;;;;;-1.96;74.33;96563.25;6274211;22;20028;-80
2021/01/17 06:54:35;;;;;;;28.63;16.42;;;;;;;-1.97;74.28;96555.66;6256888;22;20087;-80
2021/01/17 06:57:03;;;;;;;32.65;17.33;;;;;;;-1.99;74.33;96567.72;6249113;23;20048;-80
2021/01/17 06:59:32;;;;;;;29.65;16.70;;;;;;;-2.00;74.26;96561.00;6247669;23;20344;-80
2021/01/17 07:02:22;;;;;;;33.50;18.33;;;;;;;-2.01;74.30;96564.47;6271464;23;20020;-80
2021/01/17 07:05:07;;;;;;;32.92;17.88;;;;;;;-2.00;74.32;96566.13;6255139;23;20023;-80
2021/01/17 07:08:02;;;;;;;31.63;17.35;;;;;;;-2.00;74.76;96566.13;6272263;23;20035;-80
2021/01/17 07:10:39;;;;;;;30.55;17.40;;;;;;;-2.03;74.54;96566.31;6250187;23;20027;-80
2021/01/17 07:13:07;;;;;;;33.03;16.42;;;;;;;-2.03;74.58;96556.06;6248315;23;20016;-80
2021/01/17 07:15:36;;;;;;;30.27;16.80;;;;;;;-2.06;74.72;96562.22;6247702;23;20016;-80
2021/01/17 07:18:05;;;;;;;31.77;16.42;;;;;;;-2.08;74.52;96558.94;6247035;23;20098;-80
2021/01/17 07:20:34;;;;;;;30.88;17.63;;;;;;;-2.08;74.69;96558.94;6246359;23;20030;-80
2021/01/17 07:23:02;;;;;;;29.88;16.05;;;;;;;-2.07;74.77;96560.59;6246253;23;20452;-80
2021/01/17 07:25:30;;;;;;;42.13;20.90;;;;;;;-2.02;74.67;96568.75;6246298;23;20012;-80
2021/01/17 07:28:04;;;;;;;37.88;19.20;;;;;;;-2.00;75.10;96563.56;6246231;23;20036;-80
2021/01/17 07:30:49;;;;;;;33.13;18.33;;;;;;;-1.99;74.73;96567.72;6246376;23;20453;-80
2021/01/17 07:33:22;;;;;;;36.75;18.88;;;;;;;-1.98;74.86;96566.81;6246145;23;20512;-80
2021/01/17 07:35:50;;;;;;;;;;;;;;;-1.91;74.85;96568.03;6246917;23;20095;-80
2021/01/17 07:38:18;;;;;;;32.47;18.05;;;;;;;-1.95;74.38;96566.59;6248491;23;19916;-80
2021/01/17 07:40:50;;;;;;;33.53;18.90;;;;;;;-1.98;74.55;96559.16;6245717;23;20022;-80
2021/01/17 07:43:19;;;;;;;31.33;17.83;;;;;;;-2.00;74.44;96566.13;6246306;23;20424;-79
2021/01/17 07:45:45;;;;;;;29.52;16.58;;;;;;;-2.03;74.55;96561.19;6246681;23;20063;-80
2021/01/17 07:48:14;;;;;;;36.17;19.58;;;;;;;-2.06;74.46;96564.78;6246411;23;20028;-79
2021/01/17 07:50:42;;;;;;;28.90;18.23;;;;;;;-2.05;74.63;96565.63;6245652;23;20441;-79
2021/01/17 07:53:14;;;;;;;34.72;18.27;;;;;;;-2.03;74.69;96574.81;6246343;23;20024;-80
2021/01/17 07:55:42;;;;;;;31.58;16.77;;;;;;;-2.03;74.66;96577.38;6246112;23;20020;-80
2021/01/17 07:58:11;;;;;;;37.72;18.95;;;;;;;-2.00;74.43;96586.56;6245371;23;20534;-79
2021/01/17 08:00:38;;;;;;;30.58;17.48;;;;;;;-1.99;74.49;96583.06;6245231;23;20479;-80
2021/01/17 08:03:05;;;;;;;32.47;18.33;;;;;;;-1.99;74.47;96576.25;6245236;23;20023;-80
2021/01/17 08:05:52;;;;;;;33.30;18.33;;;;;;;-1.96;74.68;96577.75;6245458;23;20106;-80
2021/01/17 08:08:46;;;;;;;35.72;20.00;;;;;;;-1.96;74.58;96585.44;6247904;23;20080;-81
2021/01/17 08:11:42;;;;;;;32.88;18.40;;;;;;;-1.96;74.42;96583.69;6246494;23;20461;-80
2021/01/17 08:14:23;;;;;;;34.33;18.83;;;;;;;-1.97;74.34;96581.22;6247793;23;20020;-81
2021/01/17 08:17:09;;;;;;;36.92;19.60;;;;;;;-1.96;74.58;96588.00;6259094;23;20055;-81
2021/01/17 08:19:39;;;;;;;36.92;20.00;;;;;;;-1.95;74.32;96595.53;6264195;23;20016;-82
2021/01/17 08:22:44;;;;;;;31.02;17.88;;;;;;;-1.90;74.71;96603.72;6265723;23;20064;-81
2021/01/17 08:25:14;;;;;;;34.13;19.85;;;;;;;-1.85;74.73;96602.59;6261135;23;20388;-80
2021/01/17 08:27:43;;;;;;;38.63;20.80;;;;;;;-1.84;74.38;96607.59;6257681;23;20026;-81
2021/01/17 08:30:16;;;;;;;34.33;19.13;;;;;;;-1.82;74.37;96605.75;6253316;23;20013;-82
2021/01/17 08:32:52;;;;;;;35.83;20.02;;;;;;;-1.83;74.03;96606.69;6256376;23;20076;-81
2021/01/17 08:35:39;;;;;;;28.58;17.48;;;;;;;-1.83;74.58;96616.91;6257397;23;20020;-81
2021/01/17 08:38:30;;;;;;;31.75;17.40;;;;;;;-1.78;74.52;96608.91;6257734;23;20016;-82
2021/01/17 08:41:27;;;;;;;25.52;15.75;;;;;;;-1.74;74.49;96612.91;6232316;23;20013;-82
2021/01/17 08:44:07;;;;;;;30.60;16.10;;;;;;;-1.71;74.48;96612.69;6258556;23;20027;-81
2021/01/17 08:46:51;;;;;;;28.25;15.88;;;;;;;-1.69;74.50;96621.06;6261774;23;20027;-82
2021/01/17 08:49:49;;;;;;;28.55;17.05;;;;;;;-1.68;74.66;96613.31;6266339;23;20020;-82
2021/01/17 08:52:46;;;;;;;26.95;15.90;;;;;;;-1.64;74.55;96620.75;6262351;23;20040;-81
2021/01/17 08:55:57;;;;;;;34.03;17.10;;;;;;;-1.61;74.49;96620.56;6259386;23;20035;-81
2021/01/17 08:58:46;;;;;;;27.27;16.52;;;;;;;-1.60;74.45;96624.75;6260597;23;20046;-82
2021/01/17 09:01:15;;;;;;;28.30;16.48;;;;;;;-1.59;74.47;96623.84;6260986;23;20096;-81
2021/01/17 09:04:26;;;;;;;30.98;16.90;;;;;;;-1.57;74.90;96627.09;6259241;23;20066;-81
2021/01/17 09:07:01;;;;;;;32.30;17.73;;;;;;;-1.51;74.43;96629.22;6263126;23;20024;-81
2021/01/17 09:09:37;;;;;;;;;;;;;;;-1.45;74.56;96633.91;6259236;23;20021;-79
2021/01/17 09:12:11;;;;;;;27.20;16.27;;;;;;;-1.44;73.72;96635.56;6247534;23;19923;-78
2021/01/17 09:14:39;;;;;;;29.38;16.70;;;;;;;-1.44;74.19;96635.56;6248993;23;20020;-80
2021/01/17 09:17:10;;;;;;;33.65;18.10;;;;;;;-1.44;74.29;96638.13;6256907;23;20070;-81
2021/01/17 09:19:38;;;;;;;27.88;15.82;;;;;;;-1.42;74.38;96643.94;6254136;23;20027;-80
2021/01/17 09:22:07;;;;;;;27.38;15.55;;;;;;;-1.39;74.39;96638.59;6252699;23;20070;-80
2021/01/17 09:27:19;;;;;;;31.00;17.38;;;;;;;-1.35;74.41;96645.16;6256950;22;20035;-82
2021/01/17 09:32:59;;;;;;;23.83;14.38;;;;;;;-1.30;74.63;96647.38;6169673;23;20326;-80
2021/01/17 09:35:58;;;;;;;27.08;14.45;;;;;;;-1.23;74.41;96655.44;6228218;23;20055;-80
2021/01/17 09:41:18;;;;;;;25.38;14.68;;;;;;;-1.15;74.31;96655.75;6172327;23;20019;-83
2021/01/17 09:43:53;;;;;;;26.08;15.00;;;;;;;-1.13;74.37;96661.56;6241475;23;20014;-80
2021/01/17 09:46:23;;;;;;;28.38;16.75;;;;;;;-1.11;74.77;96667.41;6240398;23;20016;-79
2021/01/17 09:48:58;;;;;;;30.33;16.55;;;;;;;-1.11;74.83;96664.84;6238734;23;20076;-80
2021/01/17 09:51:28;;;;;;;27.05;16.23;;;;;;;-1.08;75.02;96669.72;6230528;23;20013;-80
2021/01/17 09:53:56;;;;;;;27.40;15.68;;;;;;;-1.08;74.92;96674.84;6227189;23;20017;-80
2021/01/17 09:56:24;;;;;;;29.95;16.25;;;;;;;-1.02;75.19;96678.75;6228757;23;20043;-80
2021/01/17 09:58:50;;;;;;;25.50;15.18;;;;;;;-0.97;75.06;96668.97;6225603;23;20095;-80
2021/01/17 10:01:21;;;;;;;27.25;15.48;;;;;;;-0.94;75.14;96669.59;6225308;23;20013;-80
2021/01/17 10:03:49;;;;;;;24.88;14.60;;;;;;;-0.93;74.86;96681.47;6224201;23;20020;-80
2021/01/17 10:06:16;;;;;;;25.05;14.90;;;;;;;-0.91;75.25;96683.91;6222701;23;20036;-80
2021/01/17 10:08:44;;;;;;;26.95;15.07;;;;;;;-0.88;75.33;96678.56;6224307;23;20115;-80
2021/01/17 10:11:12;;;;;;;24.98;14.63;;;;;;;-0.87;75.03;96678.47;6228309;23;20453;-80
2021/01/17 10:13:47;;;;;;;30.00;16.27;;;;;;;-0.84;75.61;96678.25;6229098;23;20084;-82
2021/01/17 10:16:21;;;;;;;25.13;14.30;;;;;;;-0.78;75.75;96686.44;6223892;23;20047;-80
2021/01/17 10:18:48;;;;;;;27.92;15.73;;;;;;;-0.74;75.35;96690.41;6218312;23;20393;-78
2021/01/17 10:21:16;;;;;;;25.92;16.92;;;;;;;-0.74;75.14;96687.84;6216438;23;20082;-79
2021/01/17 10:26:22;;;;;;;27.17;15.57;;;;;;;-0.71;75.34;96690.19;6157314;23;20366;-79
2021/01/17 10:28:49;;;;;;;27.65;16.73;;;;;;;-0.71;75.54;96683.31;6156639;23;20365;-80
2021/01/17 10:31:23;;;;;;;25.55;15.13;;;;;;;-0.68;75.64;96685.66;6157639;23;20025;-79
2021/01/17 10:33:50;;;;;;;26.15;16.10;;;;;;;-0.66;75.71;96688.94;6126790;23;20033;-80
2021/01/17 10:36:17;;;;;;;27.75;16.17;;;;;;;-0.61;75.81;96691.16;6126293;23;20025;-80
2021/01/17 10:38:45;;;;;;;25.75;15.45;;;;;;;-0.57;75.57;96692.56;6126676;23;20080;-80
2021/01/17 10:41:25;;;;;;;25.77;13.75;;;;;;;-0.55;75.75;96690.69;6126441;23;20021;-80
2021/01/17 10:44:01;;;;;;;26.40;15.23;;;;;;;-0.51;75.80;96693.88;6127035;23;20025;-80
2021/01/17 10:46:28;;;;;;;23.45;15.23;;;;;;;-0.47;75.55;96685.84;6126629;23;20028;-79
2021/01/17 10:49:02;;;;;;;25.48;14.90;;;;;;;-0.44;75.93;96683.09;6126042;23;20335;-80
2021/01/17 10:51:35;;;;;;;26.50;15.65;;;;;;;-0.41;75.87;96687.16;6136849;23;20029;-80
2021/01/17 10:54:04;;;;;;;28.35;16.25;;;;;;;-0.40;75.61;96685.41;6143287;23;20075;-80
2021/01/17 10:56:32;;;;;;;24.33;15.57;;;;;;;-0.35;75.65;96691.00;6143340;23;20025;-80
2021/01/17 10:59:01;;;;;;;26.52;16.67;;;;;;;-0.32;75.63;96685.69;6128694;23;20489;-81
2021/01/17 11:01:32;;;;;;;23.65;14.82;;;;;;;-0.29;76.03;96680.31;6127553;23;20022;-80
2021/01/17 11:04:01;;;;;;;28.50;15.55;;;;;;;-0.25;75.74;96691.97;6133545;23;20026;-80
2021/01/17 11:06:29;;;;;;;22.25;14.57;;;;;;;-0.22;75.68;96687.47;6137182;23;20029;-79
2021/01/17 11:08:57;;;;;;;25.95;14.60;;;;;;;-0.19;75.53;96688.97;6131258;23;20026;-79
2021/01/17 11:11:27;;;;;;;22.52;13.30;;;;;;;-0.15;75.50;96686.97;6134281;23;20022;-80
2021/01/17 11:13:59;;;;;;;20.33;12.50;;;;;;;-0.13;75.72;96688.53;6136335;23;20065;-79
2021/01/17 11:16:34;;;;;;;23.90;14.40;;;;;;;-0.11;75.43;96689.22;6127657;23;20029;-78
2021/01/17 11:19:00;;;;;;;20.48;13.15;;;;;;;-0.10;75.36;96688.28;6127282;23;20121;-79
2021/01/17 11:21:30;;;;;;;20.58;12.57;;;;;;;-0.07;75.31;96690.63;6125514;23;20021;-80
2021/01/17 11:23:57;;;;;;;22.52;12.65;;;;;;;-0.02;75.48;96687.75;6127040;23;20032;-79
2021/01/17 11:26:26;;;;;;;23.17;13.70;;;;;;;0.01;75.40;96692.63;6127919;23;20366;-79
2021/01/17 11:28:54;;;;;;;20.55;13.00;;;;;;;0.04;75.27;96686.44;6127458;23;20022;-79
2021/01/17 11:31:22;;;;;;;18.45;11.98;;;;;;;0.08;75.45;96692.97;6136011;23;20024;-79
2021/01/17 11:33:50;;;;;;;18.75;11.82;;;;;;;0.12;75.36;96689.25;6139395;23;20045;-80
2021/01/17 11:36:18;;;;;;;20.83;12.02;;;;;;;0.13;75.41;96691.72;6142234;23;20026;-80
2021/01/17 11:38:47;;;;;;;19.25;11.85;;;;;;;0.16;75.68;96691.47;6137824;23;20486;-80
2021/01/17 11:41:15;;;;;;;22.25;13.18;;;;;;;0.19;75.29;96690.44;6129784;23;20018;-80
2021/01/17 11:43:42;;;;;;;18.85;11.63;;;;;;;0.20;75.21;96682.63;6125848;23;20366;-77
2021/01/17 11:46:10;;;;;;;20.98;13.27;;;;;;;0.22;75.50;96687.66;6125874;23;20029;-79